createdAt,value
2019-01-04T00:00:08.456Z,1016.36
2019-01-04T00:28:46.083Z,1016.46
2019-01-04T00:57:24.670Z,1016.47
2019-01-04T01:26:00.670Z,1016.86
2019-01-04T01:54:39.363Z,1016.55
2019-01-04T02:23:16.789Z,1016.82
2019-01-04T02:51:52.857Z,1016.59
2019-01-04T03:20:30.698Z,1016.44
2019-01-04T03:49:07.119Z,1016.35
2019-01-04T04:17:44.518Z,1016.13
2019-01-04T04:46:23.332Z,1015.98
2019-01-04T05:15:00.494Z,1015.91
2019-01-04T05:43:37.755Z,1015.48
2019-01-04T06:12:19.285Z,1015.73
2019-01-04T06:40:38.134Z,1015.87
2019-01-04T07:09:17.425Z,1016.15
2019-01-04T07:37:58.566Z,1015.98
2019-01-04T08:06:38.863Z,1016.03
2019-01-04T08:35:15.109Z,1015.72
2019-01-04T09:03:54.394Z,1015.25
2019-01-04T09:32:30.857Z,1015.18
2019-01-04T10:01:12.746Z,1015.11
2019-01-04T10:29:51.458Z,1014.43
2019-01-04T10:58:30.594Z,1013.72
2019-01-04T11:27:10.190Z,1013.03
2019-01-04T11:55:47.350Z,1012.62
2019-01-04T12:24:22.506Z,1012.16
2019-01-04T12:53:00.278Z,1011.79
2019-01-04T13:21:39.526Z,1011.61
2019-01-04T13:50:13.158Z,1011.15
2019-01-04T14:18:48.808Z,1011.03
2019-01-04T14:47:27.217Z,1011.15
2019-01-04T15:16:03.992Z,1010.78
2019-01-04T15:44:41.730Z,1010.64
2019-01-04T16:13:20.466Z,1010.32
2019-01-04T16:41:57.998Z,1009.57
2019-01-04T17:10:31.801Z,1009.63
2019-01-04T17:39:10.599Z,1009.49
2019-01-04T18:07:49.035Z,1009.37
2019-01-04T18:36:16.591Z,1009.72
2019-01-04T19:04:52.777Z,1009.74
2019-01-04T19:33:31.844Z,1009.57
2019-01-04T20:02:11.194Z,1009.4
2019-01-04T20:30:51.292Z,1009.41
2019-01-04T20:59:25.069Z,1009.29
2019-01-04T21:28:03.824Z,1008.91
2019-01-04T21:56:43.636Z,1008.65
2019-01-04T22:25:24.576Z,1008.42
2019-01-04T22:54:03.983Z,1008.04
2019-01-04T23:22:44.967Z,1007.73
2019-01-04T23:51:15.824Z,1007.39
